Timeline UpdatesTrip UpdatesNews PostsPvt Posts♥♥Travel TipsAdmin PostsConv PostsFollowed PostsChat RequestsBlog PostsPNR Posts

Disclaimer
Search
 
 
Fri Oct 31, 2014 23:26:21 ISTHomeTrainsΣChainsAtlasPNRForumGalleryNewsFAQTripsMembersLoginFeedback
No Recent News for this Train
Other Trains in the News **new
Latest...
Will depart from originating station at 15:30 hours w.e.f. 01.09.2014
Wed Aug 27, 2014 (04:18AM)
⇐ Return Journey: Train# 13352-Slip

18189/Tatanagar- Alappuzha Alleppey Express-Slip

Time-Table HAS CHANGED.
Sep 08 2014 (8:55PM)
Change Departure Station:
Change Arrival Station:
Post a Train Travel TipPost a Train Travel Tip **new
Post a Comment/Question/Picture/VideoPost a Comment/Question/Picture/Video
Pantry/Catering
✓ Pantry Car Avbl
✓ Catering Avbl
.pantry car available from rourkela to allappuzha because pantry car...
Read more...
is available in dhanbad portion
Loco/Rake Reversals
MAS/Chennai Central (12); SRR/Shoranur Junction (7); VSKP/Visakhapatnam Junction (8);
RSA - Rake Sharing
Rake/Coach Composition
LOCO-SLR*-GS*-S1*-S2*-S3*-S4*-S5*-S6*-S7*-S8*-PC*-A1*-B1*-B2-ST1-ST2-ST3-ST4-ST5-GS-SLR; *= Dhanbad portion attached at ROU.
Loco
Loco In-Charge:- TATA - ROU :- TATA WAM-4/ASN WAM-4 ROU - VSKP...
Read more...
:- VSKP/R/BNDM WDM-3A VSKP - MAS :- AJJ WAM-4/BZA WAM-4 - RPM WAP-4/1 MAS - ALLP :- RPM WAP-1/WAP-4, AJJ WAM-4/WAP-4
News    PNR    Forum    Time-Table    Availability    Fare Chart    Map    Arr/Dep History    Trips    Gallery    ΣChains    X/O    Timeline    
Travel Time: 11h 55m    11 halts    Distance: 470 km    Avg Speed: 39 km/hr
Type: Mail/Express
Zone: SER/South Eastern
Departs @ 08:25 (Avg 7m late)
Platform# ???
SMTWTFS
Bommidi/BQI 
Arrives @ 20:20 (Avg 15m late)
Platform# 3
SMTWTFS
Alappuzha/ALLP 

11 halts. 79 intermediate Stations between Bommidi and Alappuzha

Show ALL intermediate Stations  Show Old Time-Table

#TrkCodeStation NameX/OArrivesAvgDepartsAvgHaltPFDay#KmSpeedElevZoneAddress
1/==/TATATatanagar Junction (5)  -15:45 15:30+311-1892.962164mSER91-657-2423026, Jharkhand
2/==/SINISini Junction (3)X  16:10 15:56+1116:11 15:57+131m--1-1866.061182mSERNational Highway 33, Jharkhand
3/==/RKSNRajkharsawan Junction (3)  16:25 16:12+1616:26 16:13+171m--1-1850.755189mSERSaraikela Kharswan District, Jharkhand
4/==/CKPChakradharpur (3)X  16:50 16:35+1116:55 16:40+115m11-1830.792235mSERChakradharpur (West Singhbhum), Jharkhand
5/==/GOLGoilkera (2)  17:16 17:02+1717:17 17:03+181m--1-1796.957333mSERGoilkera, Jharkhand
6/==/MOUManoharpurX  17:46 17:32+1417:47 17:33+151m--1-1769.469228mSERManoharpur, Jharkhand
7/==/BNDMBondamunda (2)  18:14 18:02+2018:15 18:03+111m--1-1736.118213mSERRourkela, Odisha
8/--/ROURourkela Junction (5)X18:35 18:25+1119:00+4:1925 35m11-1729.664198mSERRourkela, Odisha
9/==/GPRaj Gangpur (3)O  19:28+1919:29+201m--1-1699.842237mSERRaj Ganpur, Odisha
10/==/BMBBamra (3)  19:59 20:19+1820:00 20:20+181m--1-1665.2110259mSERBamra PH : 06642-229268, Odisha
11/==/JSGJharsuguda Junction (5)  20:40+520:50+310m11-1628.766236mSERJharsuguda, Odisha
12|==!RGLRengaliO  21:15 21:14+2321:17 21:15+232 1m--1-1602.365208mECoRState Highway 10, Odisha
13|==|SBPDSambalpur Road  21:35 21:34-21:37 21:35-2 1m--1-1581.69161mECoRSambalpur, Odisha
14|--|SBPSambalpur Junction (3)X  21:45+2021:55+1910m11-1580.161159mECoRSambalpur, Odisha
15|--|ATSAttabira  22:18 22:19+2622:20+262 1m--1-1555.677164mECoRBargarh, Odisha
16|--|BRGABargarh Road (3)XO  22:34+2822:39+295m--1-1537.568185mECoRBargarh, Odisha
17|--|BRPLBarpaliX  22:57 22:56+2722:59 22:57+392 1m--1-1518.365178mECoRBarpali, Odisha
18|--|BLGRBalangir (3)  23:50+5623:55+1:125m--1-1461.246210mECoRBolangir, Odisha
19|--|BUDMBadmal  00:50 00:51+1:0100:52+1:012 1m--2-1417.923209mECoRDumerbahal Rd, Odisha
20|--|TIGTitlagarh Junction (3)XO  01:45+2701:55+3210m--2-1397.952212mECoRTitlagarh, Odisha
21%==%KSNGKesinga (1)XO  02:10 02:11+2502:12+252 1m12-1383.961183mECoRKesinga, Odisha
22%==%RPRDRupra RoadO  02:27 02:28+3502:29+352 1m--2-1367.740233mECoRKalahandi, Odisha
23%==%NRLRNorla RoadO  02:38 02:39+3302:40+332 1m--2-1361.158247mECoRKalahandi, Odisha
24%==%AMBAmbodala  03:05 03:06+3603:07+362 1m--2-1336.138374mECoRState Highway 6, Odisha
25%==%MNGDMunigudaX  03:45 03:46+2003:47+202 1m--2-1311.140335mECoRMuniguda, Odisha
26%==%THVTherubaliO  04:40 04:41+304:42+62 1m--2-1275.130270mECoRRayagada, Odisha
27%==%SPRDSingapuram Road (2)X  05:00 05:01+205:02+102 1m--2-1265.715248mECoRJaykaypur, Odisha
28%==%RGDARayagada (3)O  05:40-105:55+015m--2-1256.572229mECoRRayagada ph.no 06856-222407, Odisha
29%==%PVPTParvatipuram TownXO  06:32 06:33-06:34-2 1m--2-1211.220121mECoRParvatipuram, Andhra Pradesh
30%==%PVPParvatipuram (3)  06:38 06:39+806:40+82 1m--2-1209.672122mECoRParvatipuram, Andhra Pradesh
31%==%VBLBobbili Junction (2)X  07:00+1007:03+103m22-1185.749137mECoRBobbili, Andhra Pradesh
32%==%VZMVizianagaram Junction (5)  08:15 08:10+208:20 08:15+165m--2-1131.48463mECoRVizianagaram, Andhra Pradesh
33/==/KTVKottavalasa Junction (5)X  08:48 08:40+4208:50 08:42+422m--2-1096.45758mECoRVizianagaram District, Andhra Pradesh
34/==/SCMSimhachalam (2)X  09:17 09:01-09:19 09:02-2 1m--2-1078.4927mECoRVisakhapatnam, Andhra Pradesh
35/==/VSKPVisakhapatnam Junction (8)XO10:05 09:55+410:25 10:10+320 15m42-1070.23311mECoRVishakhapatnam 530001, Andhra Pradesh
36/==/AKPAnakapalle (3)  11:10 11:09+2711:11 11:10+281m--2-1037.96830mSCRAnakapalle ph.no . 08924-221698, Andhra Pradesh
37/==/YLMElamanchili (2)X  11:31+3011:32+341m--2-1014.27123mSCRVisakhapatnam District, Andhra Pradesh
38/==/NRPNarsipatnam Road (2)  11:47+3711:48+381m--2-996.48418mSCRVisakhapatnam District, Andhra Pradesh
39/==/TUNITuni (2)X  12:04+4212:05+431m12-974.17124mSCRTuni ph.no. 08854-252172, Andhra Pradesh
40/==/ANVAnnavaram (3)  12:19+5512:20+561m12-957.57627mSCREast Godavari District, Andhra Pradesh
41/==/GLPGollaproluX  12:35+1:0012:36+1:001m--2-938.44919mSCRGollaprollu, Andhra Pradesh
42/==/PAPPithapuram (2)  12:43+1:0112:44+1:081m--2-932.77222mSCREast Godavari District, Andhra Pradesh
43/==/SLOSamalkot Junction (3)  12:54+4112:55+411m32-920.68418mSCRSamalkot, Andhra Pradesh
44/==/APTAnaparti (3)  13:14+1:2113:15+1:211m--2-894.13821mSCREast Godavari District, Andhra Pradesh
45/==/DWPDwarapudi (3)  13:21+1:2113:22+1:221m--2-890.32420mSCREast Godavari District, Andhra Pradesh
46/==/RJYRajahmundry (3)  14:11+3714:16+375m12-870.43623mSCRRajahmundry ph.no. 0883-2420541, Andhra Pradesh
47/==/KVRKovvur (3)  14:29+4514:30+461m--2-862.66125mSCRWest Godavari, Andhra Pradesh
48/==/NDDNidadavolu Junction (3)  14:44+1:0614:45+1:071m--2-848.37120mSCRNidadavolu jtn ph.no. 08813-210325, Andhra Pradesh
49/==/TDDTadepalligudem (3)X  15:02+1:1115:03+1:121m--2-828.38718mSCRTadepalligudem, Andhra Pradesh
50/==/EEEluru (3)X  15:36+1:1415:37+1:151m32-780.53319mSCREluru Ph.no. 08812 226401., Andhra Pradesh
51/==/BZAVijayawada Junction (10)X  17:25+1917:45+1820m--2-721.16924mSCRVijayawada 520001, Andhra Pradesh
52/==/TELTenali Junction (5)O  18:12+2718:13+281m32-689.94316mSCRTel: 08644-227834, Andhra Pradesh
53/==/NDONidubrolu (3)  18:33 18:44+1:0218:34 18:45+1:021m--2-667.9659mSCRNidubrolu, Andhra Pradesh
54/==/BPPBapatla (3)X  18:53 19:04+4318:54 19:05+431m--2-647.36510mSCRBapatla, Andhra Pradesh
55/==/CLXChirala (4)  19:06 19:19+1:1119:07 19:20+1:121m--2-632.2878mSCRChirala, Andhra Pradesh
56/==/CJMChinnaganjam (3)X  19:23 19:34+1:2419:24 19:35+1:241m--2-611.9519mSCRChinna Ganjam, Andhra Pradesh
57/==/OGLOngole (3)  20:12 20:09+1:0020:13 20:10+1:011m32-582.96812mSCROngole, Andhra Pradesh
58/==/SKMSingarayakonda (2)X  20:35+1:1120:36+1:111m22-554.69126mSCRSingarayakonda, Andhra Pradesh
59/==/KVZKavali (4)X  21:01+021:02+01m22-516.97621mSCRKavali, Andhra Pradesh
60/==/BTTRBitragunta (2)X  21:15-21:16-1m22-500.44515mSCRBitragunta, Andhra Pradesh
61/==/NLRNellore (4)X  22:02+722:03+71m32-466.11721mSCRNellore, Andhra Pradesh
62/==/GDRGudur Junction (3)  00:18+000:20+22m23-427.66919mSCRGudur, Andhra Pradesh
63/==/NYPNayadupeta (3)  00:44+400:45+51m23-399.96833mSRNayudupeta, Andhra Pradesh
64/==/SPESullurupeta (3)  01:09+801:10+91m23-372.7479mSR524121., Andhra Pradesh
65/==/MASChennai Central (12)03:00 02:55-203:25+025 30m83-290.3599mSRChennai 600003, Tamil Nadu
66/==/AJJArakkonam Junction (8)X  04:35+704:40+45m13-221.65691mSRArakkonam, Tamil Nadu
67/==/KPDKatpadi Junction (5)XO  05:50 05:45-405:55 05:50+45m13-160.877213mSRVellore 632007, Tamil Nadu
68/==/GYMGudiyattam (3)O  06:14 06:09+406:15 06:10+71m33-136.391269mSRVellore, Tamil Nadu
69/==/VNVaniyambadiXO  06:44 06:39+806:45 06:40+41m--3-92.524357mSRVaniyambadi, Tamil Nadu
70/==/JTJJolarpettai Junction (5)O  07:18-507:20+02m--3-77.039405mSRJolarpettai, Tamil Nadu
71/==/TPTTirupattur (2)  07:30 07:31+107:32+12 1m--3-69.873392mSRTirupattur ph.no. 04179-220062, Tamil Nadu
72/==/SLYSamalpatti  07:50 07:51+507:52+42 1m--3-46.687388mSRSamalpatti ph.no. 04341-245601, Tamil Nadu
73/==/BQIBommidi»X  08:23 08:24+808:25+72 1m--30.0520mSRBommidi ph.no. 04346-244441, Tamil Nadu
74/==/SASalem Junction (6)XO  09:00 09:15+1209:05 09:20+115m--343.361283mSRSalem, Tamil Nadu
75/==/EDErode Junction (4)X  10:15 10:20+010:25 10:30+410m23104.670175mSRErode ph.no: 0424-2256111, Tamil Nadu
76/==/TUPTiruppur (2)  11:03 11:13+811:05 11:15+82m13154.843305mSRTiruppur. Ph:0421-2200450, Tamil Nadu
77/==/CBECoimbatore Main Junction (6)X  12:08 12:25+312:10 12:30+32 5m--3205.339416mSRCoimbatore 641001, Tamil Nadu
78/==/PGTPalakkad Junction (4)X  13:30 13:55+013:35 14:00+05m--3260.63684mSRPalghat Tel: 0491 2555231, Kerala
79/==/SRRShoranur Junction (7)14:40 15:15+1215:25+045 10m53305.24226mSRShoranur ph.no 0466-2222913, Kerala
80/==/TCRThrissur (4)  16:27 16:12+716:30 16:15+73m13338.2606mSRThrissur Tel: 0487 2423150, Kerala
81/==/AWYAluva (3)XOO  17:18 17:10+817:20 17:12+82m13392.81812mSRPh: 0484-2624141, Kerala
82/=-/ERSErnakulam Junction (South) (6)  18:26 18:15+218:30 18:25+14 10m13412.2413mSRErnakulam 682016, Kerala
83/--/TUVRTuravur (2)  19:04 18:59-19:05 19:00-1m--3435.6665mSRThuravoor, Kerala
84/--/SRTLCherthala (3)O  19:19 19:09-19:20 19:10-1m23445.6217mSRPh: 0478- 2812500, Kerala
85/--/ALLPAlappuzha (3)•  20:20+15-33469.7-8mSRPh:0477-2253965, Kerala
Scroll to Top
Scroll to Bottom